createdAt,value
2019-05-09T20:33:23.094Z,74.81
2019-05-09T20:35:54.375Z,74.79
2019-05-09T20:38:25.629Z,74.82
2019-05-09T20:40:57.076Z,74.96
2019-05-09T20:43:28.614Z,74.79
2019-05-09T20:46:00.037Z,74.80
2019-05-09T20:48:31.855Z,74.76
2019-05-09T20:51:03.076Z,74.54
2019-05-09T20:53:34.705Z,74.67
2019-05-09T20:56:07.277Z,74.82
2019-05-09T20:58:38.549Z,74.92
2019-05-09T21:01:09.834Z,75.03
2019-05-09T21:03:41.168Z,74.88
2019-05-09T21:06:12.724Z,75.04
2019-05-09T21:08:44.022Z,74.86
2019-05-09T21:11:15.232Z,74.74
2019-05-09T21:13:48.796Z,74.61
2019-05-09T21:16:19.686Z,74.67
2019-05-09T21:18:51.121Z,74.55
2019-05-09T21:21:22.707Z,75.13
2019-05-09T21:23:54.101Z,75.16
2019-05-09T21:26:25.329Z,74.69
2019-05-09T21:28:56.529Z,74.76
2019-05-09T21:31:27.951Z,74.90
2019-05-09T21:33:59.218Z,74.97
2019-05-09T21:36:30.439Z,74.94
2019-05-09T21:39:01.535Z,75.29
2019-05-09T21:41:32.702Z,75.59
2019-05-09T21:44:03.921Z,75.59
2019-05-09T21:46:35.215Z,75.30
2019-05-09T21:49:06.627Z,75.20
2019-05-09T21:51:37.743Z,75.23
2019-05-09T21:54:08.886Z,75.25
2019-05-09T21:56:39.947Z,75.42
2019-05-09T21:59:11.303Z,75.46
2019-05-09T22:01:42.725Z,75.33
2019-05-09T22:04:13.814Z,75.63
2019-05-09T22:06:44.983Z,75.69
2019-05-09T22:09:16.040Z,75.72
2019-05-09T22:11:47.321Z,75.69
2019-05-09T22:14:18.543Z,75.86
2019-05-09T22:16:49.877Z,75.87
2019-05-09T22:19:21.258Z,75.85
2019-05-09T22:21:52.260Z,75.88
2019-05-09T22:24:23.469Z,75.80
2019-05-09T22:26:54.989Z,75.83
2019-05-09T22:29:26.229Z,76.13
2019-05-09T22:31:57.777Z,76.20
2019-05-09T22:34:29.013Z,76.69
2019-05-09T22:37:00.378Z,76.49
2019-05-09T22:39:31.806Z,76.37
2019-05-09T22:42:03.215Z,76.61
2019-05-09T22:44:34.354Z,76.83
2019-05-09T22:47:05.837Z,76.70
2019-05-09T22:49:37.278Z,76.77
2019-05-09T22:52:08.283Z,76.73
2019-05-09T22:54:39.653Z,76.85
2019-05-09T22:57:10.793Z,77.37
2019-05-09T22:59:41.889Z,77.23
2019-05-09T23:02:12.964Z,77.28
2019-05-09T23:04:44.018Z,77.33
2019-05-09T23:07:15.136Z,77.49
2019-05-09T23:09:46.345Z,77.38
2019-05-09T23:12:17.385Z,77.56
2019-05-09T23:14:48.497Z,77.57
2019-05-09T23:17:19.977Z,77.73
2019-05-09T23:19:51.422Z,78.02
2019-05-09T23:22:24.430Z,77.82
2019-05-09T23:24:55.471Z,77.76
2019-05-09T23:27:26.632Z,77.83
2019-05-09T23:29:57.806Z,77.82
2019-05-09T23:32:30.815Z,77.58
2019-05-09T23:35:02.088Z,77.71
2019-05-09T23:37:33.217Z,77.57
2019-05-09T23:40:06.728Z,77.50
2019-05-09T23:42:37.972Z,77.48
2019-05-09T23:45:09.523Z,77.43
2019-05-09T23:47:40.519Z,77.61
2019-05-09T23:50:11.590Z,77.46
2019-05-09T23:52:43.288Z,77.46
2019-05-09T23:55:32.287Z,77.00
2019-05-09T23:58:21.155Z,77.16
